M/T Arcadia — SY7849 — position and weather

sailwx.info

Track history (hours):
 
Tides and Currents Weather Stations Pressure Air Temp Water Temp Dewpoint Dewpoint Depression Visibility Wind Speed Wind Dir Waves Ship Positions

M/T Arcadia

Last reported at 2016-Jul-25 19:26 UTC. Time now 2016-Jul-26 18:00 UTC.
Position N 37°10' E 023°38'.

Length 76 m; draft 4.7 m.

Type: Tanker. MMSI: 240560000.

Date/timePositionNaut miles runAvg speedWind from/ knotsBaromVisibWave heightAir tempDewpointWater temp
2016-Jul-25 19:26N 37°10' E 023°38'6 6.6
2016-Jul-25 18:33N 37°16' E 023°37'7 6.8
2016-Jul-25 17:33N 37°23' E 023°36'7 7.1
2016-Jul-25 16:34N 37°29' E 023°33'7 6.9
2016-Jul-25 15:33N 37°35' E 023°28'7 7.1
2016-Jul-25 14:34N 37°40' E 023°21'7 7.0
2016-Jul-25 13:33N 37°44' E 023°15'8 7.6
2016-Jul-25 12:33N 37°51' E 023°10'6 2.4
2016-Jul-25 10:13N 37°55' E 023°05'0 0.0
2016-Jul-25 09:28N 37°55' E 023°05'0 0.0
2016-Jul-25 08:28N 37°55' E 023°05'0 0.0
2016-Jul-25 05:29N 37°55' E 023°05'0 0.0
2016-Jul-25 04:33N 37°55' E 023°05'0 0.0
2016-Jul-25 03:33N 37°55' E 023°05'0 0.0
2016-Jul-25 02:32N 37°55' E 023°05'0 0.0
2016-Jul-25 01:33N 37°55' E 023°05'0 0.0
2016-Jul-25 00:25N 37°55' E 023°05'0 0.0
2016-Jul-24 22:33N 37°55' E 023°05'0 0.0
2016-Jul-24 21:26N 37°55' E 023°05'0 0.0
2016-Jul-24 20:29N 37°55' E 023°05'0 0.0
2016-Jul-24 19:33N 37°55' E 023°05'6 5.7
2016-Jul-24 18:30N 37°51' E 023°10'7 7.2
2016-Jul-24 17:33N 37°45' E 023°15'7 7.1
2016-Jul-24 16:34N 37°40' E 023°21'8 7.5
2016-Jul-24 15:34N 37°35' E 023°29'7 7.3
2016-Jul-24 14:34N 37°29' E 023°33'15 7.3
2016-Jul-24 12:34N 37°15' E 023°39'7 7.1
2016-Jul-24 11:33N 37°08' E 023°41'7 6.9
2016-Jul-24 10:33N 37°01' E 023°42'9 7.0
2016-Jul-24 09:17N 36°52' E 023°44'25 6.6
2016-Jul-24 05:33N 36°28' E 023°50'7 6.9
2016-Jul-24 04:30N 36°21' E 023°52'1 0.1
2016-Jul-23 04:32N 36°20' E 023°52'7 7.6
2016-Jul-23 03:33N 36°27' E 023°50'8 7.6
2016-Jul-23 02:33N 36°35' E 023°48'7 7.3
2016-Jul-23 01:33N 36°42' E 023°46'11 7.7
2016-Jul-23 00:03N 36°53' E 023°44'7 7.8
2016-Jul-22 23:12N 36°60' E 023°42'6 8.2
2016-Jul-22 22:29N 37°06' E 023°41'7 8.0
2016-Jul-22 21:33N 37°13' E 023°39'7 7.4
2016-Jul-22 20:33N 37°20' E 023°38'7 7.3
2016-Jul-22 19:33N 37°27' E 023°36'7 7.2
2016-Jul-22 18:33N 37°33' E 023°31'7 7.3
2016-Jul-22 17:33N 37°39' E 023°24'7 6.5
2016-Jul-22 16:33N 37°42' E 023°17'7 7.0
2016-Jul-22 15:33N 37°48' E 023°13'7 7.3
2016-Jul-22 14:33N 37°53' E 023°07'2 2.0
2016-Jul-22 13:26N 37°55' E 023°05'0 0.0
2016-Jul-22 08:33N 37°55' E 023°05'0 0.0
2016-Jul-22 07:29N 37°55' E 023°05'0 0.0
2016-Jul-22 04:32N 37°55' E 023°05'0 0.0
2016-Jul-22 03:33N 37°55' E 023°05'0 0.0
2016-Jul-22 02:30N 37°55' E 023°05'0 0.0
2016-Jul-22 01:32N 37°55' E 023°05'0 0.0
2016-Jul-22 00:32N 37°55' E 023°05'0 0.0
2016-Jul-21 23:33N 37°55' E 023°05'0 0.0
2016-Jul-21 22:33N 37°55' E 023°05'0 0.0
2016-Jul-21 21:33N 37°55' E 023°05'0 0.0
2016-Jul-21 20:29N 37°55' E 023°05'5 5.2
2016-Jul-21 19:33N 37°52' E 023°10'8 8.3
2016-Jul-21 18:33N 37°45' E 023°15'8 7.7
2016-Jul-21 17:33N 37°39' E 023°22'8 8.0
2016-Jul-21 16:33N 37°34' E 023°30'8 7.7
2016-Jul-21 15:33N 37°27' E 023°34'7 6.9
2016-Jul-21 14:33N 37°22' E 023°27'8 7.3
2016-Jul-21 13:24N 37°18' E 023°18'6 7.3
2016-Jul-21 12:32N 37°12' E 023°14'  
2016-Jul-18 05:31N 37°23' E 023°36'7 7.6
2016-Jul-18 04:33N 37°30' E 023°34'7 7.4
2016-Jul-18 03:33N 37°35' E 023°28'7 7.3
2016-Jul-18 02:33N 37°40' E 023°20'7 7.0
2016-Jul-18 01:33N 37°45' E 023°15'8 7.8
2016-Jul-18 00:33N 37°52' E 023°10'5 2.0
2016-Jul-17 22:09N 37°55' E 023°05'0 0.0
2016-Jul-17 17:03N 37°55' E 023°05'0 0.0
2016-Jul-17 16:24N 37°55' E 023°05'0 0.0
2016-Jul-17 15:12N 37°55' E 023°05'0 0.0
2016-Jul-17 11:18N 37°55' E 023°05'0 0.0
2016-Jul-17 10:27N 37°55' E 023°05'0 0.0
2016-Jul-17 09:18N 37°55' E 023°05'0 0.0
2016-Jul-17 08:33N 37°55' E 023°05'0 0.0
2016-Jul-17 07:30N 37°55' E 023°05'0 0.0
2016-Jul-17 06:27N 37°55' E 023°05'0 0.0
2016-Jul-17 04:27N 37°55' E 023°05'0 0.0
2016-Jul-17 02:33N 37°55' E 023°05'0 0.0
2016-Jul-17 01:33N 37°55' E 023°05'0 0.0
2016-Jul-17 00:30N 37°55' E 023°05'0 0.0
2016-Jul-16 23:33N 37°55' E 023°05'0 0.0
2016-Jul-16 19:15N 37°55' E 023°05'0 0.2
2016-Jul-16 17:12N 37°55' E 023°05'0 0.8
2016-Jul-16 16:33N 37°54' E 023°05'0 0.0
2016-Jul-16 15:33N 37°54' E 023°05'2 1.8
2016-Jul-16 14:33N 37°54' E 023°07'6 6.5
2016-Jul-16 13:33N 37°49' E 023°12'7 7.2
2016-Jul-16 12:33N 37°43' E 023°17'7 7.3
2016-Jul-16 11:33N 37°39' E 023°24'8 7.7
2016-Jul-16 10:33N 37°33' E 023°31'8 7.6
2016-Jul-16 09:34N 37°27' E 023°36'7 7.4
2016-Jul-16 08:33N 37°19' E 023°36'8 7.9
2016-Jul-16 07:34N 37°12' E 023°32'6 6.4
2016-Jul-16 06:34N 37°06' E 023°29'13 6.4
2016-Jul-16 04:33N 36°55' E 023°21'27 7.6
2016-Jul-16 01:04N 36°29' E 023°27'3 6.8
2016-Jul-16 00:33N 36°25' E 023°28'6 6.4
2016-Jul-15 23:33N 36°19' E 023°31'7 7.1
2016-Jul-15 22:33N 36°13' E 023°36'7 7.1
2016-Jul-15 21:33N 36°07' E 023°40'7 7.2
2016-Jul-15 20:32N 36°01' E 023°44'7 7.5
2016-Jul-15 19:33N 35°55' E 023°49'  
Track history (hours):
 
Tides and Currents Weather Stations Pressure Air Temp Water Temp Dewpoint Dewpoint Depression Visibility Wind Speed Wind Dir Waves Ship Positions

M/T Arcadia

Last reported at 2016-Jul-25 19:26 UTC. Time now 2016-Jul-26 18:00 UTC.
Position N 37°10' E 023°38'.

Length 76 m; draft 4.7 m.

Type: Tanker. MMSI: 240560000.

Date/timePositionNaut miles runAvg speedWind from/ knotsBaromVisibWave heightAir tempDewpointWater temp
2016-Jul-25 19:26N 37°10' E 023°38'6 6.6
2016-Jul-25 18:33N 37°16' E 023°37'7 6.8
2016-Jul-25 17:33N 37°23' E 023°36'7 7.1
2016-Jul-25 16:34N 37°29' E 023°33'7 6.9
2016-Jul-25 15:33N 37°35' E 023°28'7 7.1
2016-Jul-25 14:34N 37°40' E 023°21'7 7.0
2016-Jul-25 13:33N 37°44' E 023°15'8 7.6
2016-Jul-25 12:33N 37°51' E 023°10'6 2.4
2016-Jul-25 10:13N 37°55' E 023°05'0 0.0
2016-Jul-25 09:28N 37°55' E 023°05'0 0.0
2016-Jul-25 08:28N 37°55' E 023°05'0 0.0
2016-Jul-25 05:29N 37°55' E 023°05'0 0.0
2016-Jul-25 04:33N 37°55' E 023°05'0 0.0
2016-Jul-25 03:33N 37°55' E 023°05'0 0.0
2016-Jul-25 02:32N 37°55' E 023°05'0 0.0
2016-Jul-25 01:33N 37°55' E 023°05'0 0.0
2016-Jul-25 00:25N 37°55' E 023°05'0 0.0
2016-Jul-24 22:33N 37°55' E 023°05'0 0.0
2016-Jul-24 21:26N 37°55' E 023°05'0 0.0
2016-Jul-24 20:29N 37°55' E 023°05'0 0.0
2016-Jul-24 19:33N 37°55' E 023°05'6 5.7
2016-Jul-24 18:30N 37°51' E 023°10'7 7.2
2016-Jul-24 17:33N 37°45' E 023°15'7 7.1
2016-Jul-24 16:34N 37°40' E 023°21'8 7.5
2016-Jul-24 15:34N 37°35' E 023°29'7 7.3
2016-Jul-24 14:34N 37°29' E 023°33'15 7.3
2016-Jul-24 12:34N 37°15' E 023°39'7 7.1
2016-Jul-24 11:33N 37°08' E 023°41'7 6.9
2016-Jul-24 10:33N 37°01' E 023°42'9 7.0
2016-Jul-24 09:17N 36°52' E 023°44'25 6.6
2016-Jul-24 05:33N 36°28' E 023°50'7 6.9
2016-Jul-24 04:30N 36°21' E 023°52'1 0.1
2016-Jul-23 04:32N 36°20' E 023°52'7 7.6
2016-Jul-23 03:33N 36°27' E 023°50'8 7.6
2016-Jul-23 02:33N 36°35' E 023°48'7 7.3
2016-Jul-23 01:33N 36°42' E 023°46'11 7.7
2016-Jul-23 00:03N 36°53' E 023°44'7 7.8
2016-Jul-22 23:12N 36°60' E 023°42'6 8.2
2016-Jul-22 22:29N 37°06' E 023°41'7 8.0
2016-Jul-22 21:33N 37°13' E 023°39'7 7.4
2016-Jul-22 20:33N 37°20' E 023°38'7 7.3
2016-Jul-22 19:33N 37°27' E 023°36'7 7.2
2016-Jul-22 18:33N 37°33' E 023°31'7 7.3
2016-Jul-22 17:33N 37°39' E 023°24'7 6.5
2016-Jul-22 16:33N 37°42' E 023°17'7 7.0
2016-Jul-22 15:33N 37°48' E 023°13'7 7.3
2016-Jul-22 14:33N 37°53' E 023°07'2 2.0
2016-Jul-22 13:26N 37°55' E 023°05'0 0.0
2016-Jul-22 08:33N 37°55' E 023°05'0 0.0
2016-Jul-22 07:29N 37°55' E 023°05'0 0.0
2016-Jul-22 04:32N 37°55' E 023°05'0 0.0
2016-Jul-22 03:33N 37°55' E 023°05'0 0.0
2016-Jul-22 02:30N 37°55' E 023°05'0 0.0
2016-Jul-22 01:32N 37°55' E 023°05'0 0.0
2016-Jul-22 00:32N 37°55' E 023°05'0 0.0
2016-Jul-21 23:33N 37°55' E 023°05'0 0.0
2016-Jul-21 22:33N 37°55' E 023°05'0 0.0
2016-Jul-21 21:33N 37°55' E 023°05'0 0.0
2016-Jul-21 20:29N 37°55' E 023°05'5 5.2
2016-Jul-21 19:33N 37°52' E 023°10'8 8.3
2016-Jul-21 18:33N 37°45' E 023°15'8 7.7
2016-Jul-21 17:33N 37°39' E 023°22'8 8.0
2016-Jul-21 16:33N 37°34' E 023°30'8 7.7
2016-Jul-21 15:33N 37°27' E 023°34'7 6.9
2016-Jul-21 14:33N 37°22' E 023°27'8 7.3
2016-Jul-21 13:24N 37°18' E 023°18'6 7.3
2016-Jul-21 12:32N 37°12' E 023°14'  
2016-Jul-18 05:31N 37°23' E 023°36'7 7.6
2016-Jul-18 04:33N 37°30' E 023°34'7 7.4
2016-Jul-18 03:33N 37°35' E 023°28'7 7.3
2016-Jul-18 02:33N 37°40' E 023°20'7 7.0
2016-Jul-18 01:33N 37°45' E 023°15'8 7.8
2016-Jul-18 00:33N 37°52' E 023°10'5 2.0
2016-Jul-17 22:09N 37°55' E 023°05'0 0.0
2016-Jul-17 17:03N 37°55' E 023°05'0 0.0
2016-Jul-17 16:24N 37°55' E 023°05'0 0.0
2016-Jul-17 15:12N 37°55' E 023°05'0 0.0
2016-Jul-17 11:18N 37°55' E 023°05'0 0.0
2016-Jul-17 10:27N 37°55' E 023°05'0 0.0
2016-Jul-17 09:18N 37°55' E 023°05'0 0.0
2016-Jul-17 08:33N 37°55' E 023°05'0 0.0
2016-Jul-17 07:30N 37°55' E 023°05'0 0.0
2016-Jul-17 06:27N 37°55' E 023°05'0 0.0
2016-Jul-17 04:27N 37°55' E 023°05'0 0.0
2016-Jul-17 02:33N 37°55' E 023°05'0 0.0
2016-Jul-17 01:33N 37°55' E 023°05'0 0.0
2016-Jul-17 00:30N 37°55' E 023°05'0 0.0
2016-Jul-16 23:33N 37°55' E 023°05'0 0.0
2016-Jul-16 19:15N 37°55' E 023°05'0 0.2
2016-Jul-16 17:12N 37°55' E 023°05'0 0.8
2016-Jul-16 16:33N 37°54' E 023°05'0 0.0
2016-Jul-16 15:33N 37°54' E 023°05'2 1.8
2016-Jul-16 14:33N 37°54' E 023°07'6 6.5
2016-Jul-16 13:33N 37°49' E 023°12'7 7.2
2016-Jul-16 12:33N 37°43' E 023°17'7 7.3
2016-Jul-16 11:33N 37°39' E 023°24'8 7.7
2016-Jul-16 10:33N 37°33' E 023°31'8 7.6
2016-Jul-16 09:34N 37°27' E 023°36'7 7.4
2016-Jul-16 08:33N 37°19' E 023°36'8 7.9
2016-Jul-16 07:34N 37°12' E 023°32'6 6.4
2016-Jul-16 06:34N 37°06' E 023°29'13 6.4
2016-Jul-16 04:33N 36°55' E 023°21'27 7.6
2016-Jul-16 01:04N 36°29' E 023°27'3 6.8
2016-Jul-16 00:33N 36°25' E 023°28'6 6.4
2016-Jul-15 23:33N 36°19' E 023°31'7 7.1
2016-Jul-15 22:33N 36°13' E 023°36'7 7.1
2016-Jul-15 21:33N 36°07' E 023°40'7 7.2
2016-Jul-15 20:32N 36°01' E 023°44'7 7.5
2016-Jul-15 19:33N 35°55' E 023°49'  

Dump ship's entire track history